Terminal Aerodrome Forecast
Issued by NWS Milwaukee/Sullivan, WI

Home | Current Version | Previous Version | Text Only | Print | Product List | Glossary On
Versions: 1 2 3 4 5 6 7 8 9 10 11 12 13 14 15 16 17 18 19 20 21 22 23 24 25 26 27 28 29 30 31
000
FTUS43 KMKX 250205 AAF
TAFMSN
TAF AMD
KMSN 250205Z 2502/2524 28005KT P6SM SCT045
      TEMPO 2502/2504 5SM BR
     FM250700 00000KT P6SM BKN045
     FM251600 31006KT P6SM SCT200=

USA.gov is the U.S. government's official web portal to all federal, state and local government web resources and services.